Time,TemperatureF,DewpointF,PressureIn,WindDirection,WindDirectionDegrees,WindSpeedMPH,WindSpeedGustMPH,Humidity,HourlyPrecipIn,Conditions,Clouds,dailyrainin,SoftwareType,DateUTC
2013-09-21 00:14:00,54.0,53.0,30.03,WNW,290,0.0,0.0,98,0.00,,,0.00,,2013-09-21 04:14:00,
2013-09-21 00:24:00,53.0,52.0,30.03,WNW,291,0.0,0.0,98,0.00,,,0.00,,2013-09-21 04:24:00,
2013-09-21 00:54:00,52.0,52.0,30.03,WNW,290,0.0,0.0,99,0.00,,,0.00,,2013-09-21 04:54:00,
2013-09-21 01:13:00,52.0,51.0,30.04,WNW,291,0.0,0.0,98,0.00,,,0.00,,2013-09-21 05:13:00,
2013-09-21 01:23:00,51.0,51.0,30.04,WNW,291,0.0,0.0,99,0.00,,,0.00,,2013-09-21 05:23:00,
2013-09-21 01:43:00,51.0,51.0,30.04,WNW,290,0.0,0.0,99,0.00,,,0.00,,2013-09-21 05:43:00,
2013-09-21 01:53:00,51.0,51.0,30.04,WNW,291,0.0,0.0,99,0.00,,,0.00,,2013-09-21 05:53:00,
2013-09-21 02:12:00,51.0,51.0,30.04,WNW,291,0.0,0.0,99,0.00,,,0.00,,2013-09-21 06:12:00,
2013-09-21 02:22:00,50.0,50.0,30.03,WNW,291,0.0,0.0,99,0.00,,,0.00,,2013-09-21 06:22:00,
2013-09-21 02:42:00,50.0,50.0,30.03,WNW,291,0.0,0.0,99,0.00,,,0.00,,2013-09-21 06:42:00,
2013-09-21 02:53:00,50.0,50.0,30.03,WNW,290,0.0,0.0,99,0.00,,,0.00,,2013-09-21 06:53:00,
2013-09-21 03:11:00,50.0,50.0,30.03,WNW,290,0.0,0.0,99,0.00,,,0.00,,2013-09-21 07:11:00,
2013-09-21 03:22:00,49.0,49.0,30.03,WNW,289,0.0,0.0,99,0.00,,,0.00,,2013-09-21 07:22:00,
2013-09-21 03:42:00,49.0,49.0,30.03,WNW,289,0.0,0.0,99,0.00,,,0.00,,2013-09-21 07:42:00,
2013-09-21 03:52:00,49.0,49.0,30.03,WNW,289,0.0,0.0,99,0.00,,,0.00,,2013-09-21 07:52:00,
2013-09-21 04:13:00,48.0,48.0,30.03,WNW,289,0.0,0.0,99,0.00,,,0.00,,2013-09-21 08:13:00,
2013-09-21 04:22:00,48.0,48.0,30.03,WNW,290,0.0,0.0,99,0.00,,,0.00,,2013-09-21 08:22:00,
2013-09-21 04:42:00,48.0,48.0,30.03,WNW,288,0.0,0.0,99,0.00,,,0.00,,2013-09-21 08:42:00,
2013-09-21 04:52:00,48.0,48.0,30.03,WNW,288,0.0,0.0,100,0.00,,,0.00,,2013-09-21 08:52:00,
2013-09-21 05:11:00,48.0,48.0,30.02,WNW,288,0.0,0.0,100,0.00,,,0.00,,2013-09-21 09:11:00,
2013-09-21 05:22:00,48.0,48.0,30.02,WNW,288,0.0,0.0,100,0.00,,,0.00,,2013-09-21 09:22:00,
2013-09-21 05:43:00,49.0,49.0,30.01,WNW,288,0.0,0.0,100,0.00,,,0.00,,2013-09-21 09:43:00,
2013-09-21 05:54:00,49.0,49.0,30.01,WNW,288,0.0,0.0,100,0.00,,,0.00,,2013-09-21 09:54:00,
2013-09-21 06:12:00,49.0,49.0,30.01,WNW,288,0.0,0.0,100,0.00,,,0.00,,2013-09-21 10:12:00,
2013-09-21 06:23:00,51.0,51.0,30.01,WNW,287,0.0,1.0,100,0.00,,,0.00,,2013-09-21 10:23:00,
2013-09-21 06:42:00,52.0,52.0,30.01,WNW,287,0.0,1.0,100,0.00,,,0.00,,2013-09-21 10:42:00,
2013-09-21 06:52:00,53.0,53.0,30.00,WNW,291,0.0,1.0,100,0.00,,,0.00,,2013-09-21 10:52:00,
2013-09-21 07:12:00,53.0,53.0,30.00,North,5,0.0,1.0,100,0.00,,,0.00,,2013-09-21 11:12:00,
2013-09-21 07:23:00,54.0,54.0,30.01,North,4,0.0,1.0,100,0.00,,,0.00,,2013-09-21 11:23:00,
2013-09-21 07:52:00,55.0,55.0,30.01,WNW,284,0.0,1.0,100,0.00,,,0.00,,2013-09-21 11:52:00,
2013-09-21 08:12:00,55.0,55.0,30.01,WNW,284,0.0,1.0,100,0.00,,,0.00,,2013-09-21 12:12:00,
2013-09-21 08:22:00,56.0,56.0,30.02,WNW,284,0.0,1.0,100,0.00,,,0.00,,2013-09-21 12:22:00,
2013-09-21 08:42:00,56.0,56.0,30.02,WNW,284,0.0,1.0,100,0.00,,,0.00,,2013-09-21 12:42:00,
2013-09-21 08:52:00,56.0,56.0,30.01,WNW,284,0.0,1.0,100,0.00,,,0.00,,2013-09-21 12:52:00,
2013-09-21 09:11:00,56.0,56.0,30.02,WNW,302,0.0,2.0,100,0.00,,,0.00,,2013-09-21 13:11:00,
2013-09-21 09:22:00,57.0,57.0,30.01,NNW,328,0.0,1.0,100,0.00,,,0.00,,2013-09-21 13:22:00,
2013-09-21 09:42:00,58.0,58.0,30.01,NNW,328,0.0,1.0,100,0.00,,,0.00,,2013-09-21 13:42:00,
2013-09-21 09:53:00,59.0,59.0,30.00,North,4,0.0,2.0,100,0.00,,,0.00,,2013-09-21 13:53:00,
2013-09-21 10:11:00,60.0,60.0,30.00,WSW,256,0.0,2.0,100,0.00,,,0.00,,2013-09-21 14:11:00,
2013-09-21 10:22:00,60.0,60.0,29.99,NNW,348,0.0,3.0,100,0.00,,,0.00,,2013-09-21 14:22:00,
2013-09-21 10:42:00,61.0,61.0,29.99,WNW,302,0.0,3.0,100,0.00,,,0.00,,2013-09-21 14:42:00,
2013-09-21 10:52:00,63.0,62.0,29.97,WNW,300,0.0,2.0,96,0.00,,,0.00,,2013-09-21 14:52:00,
2013-09-21 11:12:00,64.0,61.0,29.97,WNW,298,0.0,2.0,90,0.00,,,0.00,,2013-09-21 15:12:00,
2013-09-21 12:54:00,72.0,62.0,29.92,NE,38,0.0,2.0,70,0.00,,,0.00,,2013-09-21 16:54:00,
2013-09-21 13:12:00,72.0,64.0,29.92,NE,39,0.0,2.0,76,0.00,,,0.00,,2013-09-21 17:12:00,
2013-09-21 13:52:00,75.0,64.0,29.89,SE,129,0.0,4.0,68,0.00,,,0.00,,2013-09-21 17:52:00,
2013-09-21 14:22:00,74.0,62.0,29.88,South,170,1.0,4.0,67,0.00,,,0.00,,2013-09-21 18:22:00,
2013-09-21 14:42:00,73.0,62.0,29.88,NW,323,1.0,4.0,69,0.00,,,0.00,,2013-09-21 18:42:00,
2013-09-21 14:52:00,74.0,63.0,29.88,WNW,297,1.0,3.0,69,0.00,,,0.00,,2013-09-21 18:52:00,
2013-09-21 15:11:00,74.0,64.0,29.87,NW,304,1.0,3.0,70,0.00,,,0.00,,2013-09-21 19:11:00,
2013-09-21 15:22:00,74.0,64.0,29.86,NNW,330,1.0,5.0,72,0.00,,,0.00,,2013-09-21 19:22:00,
2013-09-21 15:42:00,75.0,64.0,29.85,NNE,16,1.0,4.0,69,0.00,,,0.00,,2013-09-21 19:42:00,
2013-09-21 15:52:00,76.0,65.0,29.84,NNE,12,1.0,4.0,68,0.00,,,0.00,,2013-09-21 19:52:00,
2013-09-21 16:12:00,75.0,64.0,29.85,NE,44,1.0,5.0,68,0.00,,,0.00,,2013-09-21 20:12:00,
2013-09-21 16:22:00,75.0,64.0,29.83,WSW,245,1.0,6.0,69,0.00,,,0.00,,2013-09-21 20:22:00,
2013-09-21 16:42:00,74.0,64.0,29.83,NNW,337,1.0,3.0,71,0.00,,,0.00,,2013-09-21 20:42:00,
2013-09-21 16:52:00,73.0,63.0,29.83,West,278,1.0,4.0,72,0.00,,,0.00,,2013-09-21 20:52:00,
2013-09-21 17:12:00,73.0,64.0,29.83,West,280,1.0,5.0,74,0.00,,,0.00,,2013-09-21 21:12:00,
2013-09-21 17:22:00,73.0,63.0,29.81,West,264,1.0,6.0,71,0.00,,,0.00,,2013-09-21 21:22:00,
2013-09-21 17:45:00,73.0,63.0,29.82,West,267,1.0,4.0,71,0.00,,,0.00,,2013-09-21 21:45:00,
2013-09-21 17:54:00,72.0,62.0,29.81,North,9,1.0,3.0,71,0.00,,,0.00,,2013-09-21 21:54:00,
2013-09-21 18:14:00,72.0,62.0,29.82,North,349,1.0,4.0,71,0.00,,,0.00,,2013-09-21 22:14:00,
2013-09-21 18:24:00,71.0,62.0,29.82,North,6,0.0,3.0,72,0.00,,,0.00,,2013-09-21 22:24:00,
2013-09-21 18:43:00,70.0,61.0,29.82,North,7,1.0,3.0,74,0.00,,,0.00,,2013-09-21 22:43:00,
2013-09-21 18:53:00,69.0,61.0,29.81,NW,307,0.0,2.0,76,0.00,,,0.00,,2013-09-21 22:53:00,
2013-09-21 19:13:00,69.0,62.0,29.81,NW,305,0.0,3.0,78,0.00,,,0.00,,2013-09-21 23:13:00,
2013-09-21 19:23:00,68.0,62.0,29.81,NW,305,0.0,2.0,81,0.00,,,0.00,,2013-09-21 23:23:00,
2013-09-21 19:42:00,67.0,61.0,29.81,NW,305,0.0,1.0,82,0.00,,,0.00,,2013-09-21 23:42:00,
2013-09-21 19:53:00,67.0,62.0,29.81,NW,305,0.0,2.0,85,0.00,,,0.00,,2013-09-21 23:53:00,
2013-09-21 20:12:00,67.0,62.0,29.81,NW,304,0.0,2.0,85,0.00,,,0.00,,2013-09-22 00:12:00,
2013-09-21 20:23:00,67.0,63.0,29.80,NW,304,0.0,2.0,86,0.00,,,0.00,,2013-09-22 00:23:00,
2013-09-21 20:43:00,67.0,63.0,29.81,NW,307,0.0,3.0,87,0.00,,,0.00,,2013-09-22 00:43:00,
2013-09-21 20:52:00,67.0,63.0,29.81,NW,305,0.0,2.0,88,0.00,,,0.00,,2013-09-22 00:52:00,
2013-09-21 21:12:00,66.0,63.0,29.80,NW,304,0.0,2.0,89,0.00,,,0.00,,2013-09-22 01:12:00,
2013-09-21 21:21:00,66.0,63.0,29.80,NW,305,1.0,2.0,90,0.00,,,0.00,,2013-09-22 01:21:00,
2013-09-21 21:42:00,67.0,64.0,29.80,NW,307,0.0,3.0,91,0.00,,,0.00,,2013-09-22 01:42:00,
2013-09-21 21:52:00,67.0,64.0,29.78,WNW,295,0.0,3.0,91,0.00,,,0.00,,2013-09-22 01:52:00,
2013-09-21 22:12:00,67.0,65.0,29.78,West,267,0.0,3.0,92,0.00,,,0.00,,2013-09-22 02:12:00,
2013-09-21 22:22:00,67.0,65.0,29.78,WNW,300,0.0,5.0,92,0.00,,,0.00,,2013-09-22 02:22:00,
2013-09-21 22:42:00,67.0,65.0,29.78,NW,320,1.0,3.0,92,0.00,,,0.00,,2013-09-22 02:42:00,
2013-09-21 22:52:00,67.0,65.0,29.77,SSE,158,0.0,5.0,92,0.00,,,0.00,,2013-09-22 02:52:00,
2013-09-21 23:12:00,67.0,65.0,29.77,NW,304,1.0,6.0,92,0.00,,,0.00,,2013-09-22 03:12:00,
2013-09-21 23:22:00,67.0,65.0,29.76,NW,306,0.0,2.0,92,0.00,,,0.00,,2013-09-22 03:22:00,
2013-09-21 23:45:00,67.0,65.0,29.76,WNW,302,0.0,2.0,92,0.00,,,0.00,,2013-09-22 03:45:00,
2013-09-21 23:54:00,68.0,66.0,29.75,NW,305,0.0,3.0,92,0.00,,,0.00,,2013-09-22 03:54:00,